Time;durP1;ratioP1;P1;durP2;ratioP2;P2;SDS_P1;SDS_P2;PMS_P1;PMS_P2;Temp;Humidity;BMP_temperature;BMP_pressure;BME280_temperature;BME280_humidity;BME280_pressure;Samples;Min_cycle;Max_cycle;Signal;HPM_P1;HPM_P2
2023/09/06 00:02:09;;;;;;;6.30;5.80;;;18.10;99.90;;;;;;5032687;28;20489;-68
2023/09/06 00:04:35;;;;;;;5.67;5.13;;;18.10;99.90;;;;;;5032939;28;20254;-71
2023/09/06 00:07:00;;;;;;;6.30;5.70;;;18.00;99.90;;;;;;5032877;28;20176;-72
2023/09/06 00:09:26;;;;;;;14.83;5.33;;;18.00;99.90;;;;;;5032996;28;20187;-69
2023/09/06 00:11:51;;;;;;;4.80;4.40;;;18.00;99.90;;;;;;5032651;28;20198;-69
2023/09/06 00:14:19;;;;;;;6.10;5.50;;;17.90;99.90;;;;;;5032906;28;20252;-71
2023/09/06 00:16:46;;;;;;;6.40;5.80;;;17.90;99.90;;;;;;5032734;28;20552;-70
2023/09/06 00:19:14;;;;;;;6.20;5.60;;;17.90;99.90;;;;;;5032910;28;20429;-70
2023/09/06 00:21:41;;;;;;;5.37;4.87;;;17.90;99.90;;;;;;5032748;28;20489;-70
2023/09/06 00:24:09;;;;;;;6.57;5.30;;;17.90;99.90;;;;;;5032717;28;20437;-71
2023/09/06 00:26:35;;;;;;;5.97;5.10;;;17.80;99.90;;;;;;5032659;28;20441;-70
2023/09/06 00:29:00;;;;;;;6.23;5.70;;;17.80;99.90;;;;;;5032679;28;20460;-70
2023/09/06 00:31:26;;;;;;;7.00;5.27;;;17.80;99.90;;;;;;5032265;28;20171;-70
2023/09/06 00:33:51;;;;;;;5.47;5.00;;;17.70;99.90;;;;;;5032427;28;20666;-70
2023/09/06 00:36:17;;;;;;;6.70;6.07;;;17.70;99.90;;;;;;5032859;28;20234;-71
2023/09/06 00:38:42;;;;;;;6.73;5.43;;;17.70;99.90;;;;;;5032454;28;20167;-70
2023/09/06 00:41:09;;;;;;;6.23;5.63;;;17.80;99.90;;;;;;5032276;28;20189;-69
2023/09/06 00:43:35;;;;;;;5.67;5.10;;;17.80;99.90;;;;;;5032124;28;20241;-71
2023/09/06 00:46:07;;;;;;;6.20;5.60;;;17.70;99.90;;;;;;5014587;28;20410;-71
2023/09/06 00:48:34;;;;;;;6.00;5.40;;;17.70;99.90;;;;;;5032342;28;20156;-71
2023/09/06 00:51:01;;;;;;;5.93;5.30;;;17.60;99.90;;;;;;5032073;28;20895;-70
2023/09/06 00:53:27;;;;;;;6.17;5.57;;;17.60;99.90;;;;;;5031793;28;20434;-71
2023/09/06 00:55:53;;;;;;;6.97;6.23;;;17.60;99.90;;;;;;5032203;28;20433;-70
2023/09/06 00:58:19;;;;;;;6.03;5.53;;;17.60;99.90;;;;;;5032163;28;20403;-71
2023/09/06 01:00:47;;;;;;;5.80;5.30;;;17.50;99.90;;;;;;5031966;28;20869;-70
2023/09/06 01:03:13;;;;;;;6.63;5.60;;;17.40;99.90;;;;;;5031716;28;20509;-70
2023/09/06 01:05:57;;;;;;;6.37;5.77;;;17.40;99.90;;;;;;5032315;28;20414;-71
2023/09/06 01:08:28;;;;;;;6.60;5.63;;;17.20;99.90;;;;;;5032179;28;20928;-71
2023/09/06 01:11:09;;;;;;;6.00;5.20;;;17.20;99.90;;;;;;5031929;28;21009;-71
2023/09/06 01:13:35;;;;;;;6.97;5.77;;;17.10;99.90;;;;;;5031764;28;20457;-70
2023/09/06 01:16:01;;;;;;;5.97;5.40;;;17.10;99.90;;;;;;5031824;28;20410;-70
2023/09/06 01:18:27;;;;;;;5.90;5.33;;;17.00;99.90;;;;;;5031403;28;20171;-70
2023/09/06 01:21:02;;;;;;;5.87;5.37;;;17.00;99.90;;;;;;5031575;28;20179;-71
2023/09/06 01:23:37;;;;;;;7.20;6.30;;;17.00;99.90;;;;;;5012118;28;20383;-70
2023/09/06 01:26:03;;;;;;;5.10;4.70;;;17.00;99.90;;;;;;5011742;28;20406;-70
2023/09/06 01:28:29;;;;;;;5.40;5.00;;;17.00;99.90;;;;;;5011439;28;20406;-70
2023/09/06 01:30:55;;;;;;;6.90;5.63;;;17.10;99.90;;;;;;5029361;28;20460;-70
2023/09/06 01:33:22;;;;;;;5.73;5.23;;;17.10;99.90;;;;;;5012152;28;20562;-70
2023/09/06 01:35:49;;;;;;;7.17;6.20;;;17.10;99.90;;;;;;5031266;28;20413;-70
2023/09/06 01:38:15;;;;;;;5.70;5.10;;;17.10;99.90;;;;;;5031175;28;20766;-70
2023/09/06 01:40:41;;;;;;;5.60;5.10;;;17.10;99.90;;;;;;5030947;28;20434;-70
2023/09/06 01:43:08;;;;;;;7.33;5.90;;;17.10;99.90;;;;;;5031005;28;20781;-70
2023/09/06 01:45:42;;;;;;;6.17;5.57;;;17.10;99.90;;;;;;5031412;28;20811;-71
2023/09/06 01:48:08;;;;;;;6.30;5.70;;;17.20;99.90;;;;;;5013489;28;20409;-69
2023/09/06 01:50:33;;;;;;;6.97;5.33;;;17.20;99.90;;;;;;5031309;28;20422;-71
2023/09/06 01:52:59;;;;;;;8.30;5.77;;;17.10;99.90;;;;;;5031033;28;20170;-70
2023/09/06 01:55:24;;;;;;;7.20;6.00;;;17.00;99.90;;;;;;5031033;28;20261;-70
2023/09/06 01:57:52;;;;;;;7.70;5.97;;;16.90;99.90;;;;;;5030870;28;20216;-70
2023/09/06 02:00:28;;;;;;;7.27;5.50;;;16.90;99.90;;;;;;5030985;28;20201;-70
2023/09/06 02:02:59;;;;;;;7.43;5.93;;;16.90;99.90;;;;;;5030684;28;20409;-70
2023/09/06 02:05:24;;;;;;;7.37;6.67;;;16.90;99.90;;;;;;5030446;28;20493;-70
2023/09/06 02:07:50;;;;;;;5.93;5.33;;;16.90;99.90;;;;;;5030769;28;20443;-70
2023/09/06 02:10:16;;;;;;;6.40;5.80;;;16.80;99.90;;;;;;5030900;28;20563;-70
2023/09/06 02:12:42;;;;;;;7.30;5.97;;;16.80;99.90;;;;;;5030627;28;20186;-70
2023/09/06 02:15:08;;;;;;;5.70;4.97;;;16.80;99.90;;;;;;5030778;28;20908;-70
2023/09/06 02:17:35;;;;;;;5.80;5.07;;;16.80;99.90;;;;;;5030805;28;20190;-69
2023/09/06 02:20:12;;;;;;;7.27;5.73;;;16.90;99.90;;;;;;5030672;28;20454;-70
2023/09/06 02:22:41;;;;;;;6.40;5.80;;;16.80;99.90;;;;;;5030877;28;20416;-70
2023/09/06 02:25:10;;;;;;;5.87;5.33;;;16.80;99.90;;;;;;5030562;28;20946;-70
2023/09/06 02:27:36;;;;;;;6.07;4.93;;;16.70;99.90;;;;;;5030256;28;20419;-70
2023/09/06 02:30:06;;;;;;;8.50;6.00;;;16.60;99.90;;;;;;5030540;28;20441;-71
2023/09/06 02:32:32;;;;;;;6.00;5.40;;;16.50;99.90;;;;;;5030084;28;20421;-70
2023/09/06 02:34:58;;;;;;;5.97;5.37;;;16.50;99.90;;;;;;5030612;28;20453;-69
2023/09/06 02:37:23;;;;;;;5.97;5.30;;;16.50;99.90;;;;;;5031003;28;20909;-71
2023/09/06 02:39:49;;;;;;;5.40;4.90;;;16.50;99.90;;;;;;5054710;22;20543;-70
2023/09/06 02:42:14;;;;;;;5.67;5.17;;;16.60;99.90;;;;;;5031491;28;20613;-70
2023/09/06 02:44:41;;;;;;;5.40;4.80;;;16.60;99.90;;;;;;5031802;28;20178;-70
2023/09/06 02:47:11;;;;;;;6.17;5.60;;;16.60;99.90;;;;;;5031894;28;20171;-70
2023/09/06 02:49:41;;;;;;;5.77;5.10;;;16.60;99.90;;;;;;5032038;28;20457;-70
2023/09/06 02:52:12;;;;;;;7.07;6.10;;;16.60;99.90;;;;;;5031647;28;20401;-70
2023/09/06 02:54:42;;;;;;;5.90;5.40;;;16.50;99.90;;;;;;5032624;28;20436;-70
2023/09/06 02:57:10;;;;;;;7.00;6.30;;;16.40;99.90;;;;;;5031880;28;20409;-70
2023/09/06 02:59:36;;;;;;;6.07;5.50;;;16.40;99.90;;;;;;5031970;28;20422;-70
2023/09/06 03:02:05;;;;;;;6.10;5.50;;;16.40;99.90;;;;;;5031542;28;20418;-70
2023/09/06 03:04:35;;;;;;;5.60;5.10;;;16.30;99.90;;;;;;5032066;28;20543;-70
2023/09/06 03:07:06;;;;;;;5.83;5.23;;;16.30;99.90;;;;;;5032135;28;20732;-70
2023/09/06 03:09:32;;;;;;;6.93;6.33;;;16.30;99.90;;;;;;5031753;28;20456;-70
2023/09/06 03:11:57;;;;;;;6.53;5.80;;;16.20;99.90;;;;;;5031634;28;20437;-70
2023/09/06 03:14:30;;;;;;;8.63;6.30;;;16.10;99.90;;;;;;5030102;28;20191;-70
2023/09/06 03:16:57;;;;;;;6.70;6.10;;;16.10;99.90;;;;;;5033723;28;20153;-70
2023/09/06 03:19:23;;;;;;;6.67;5.83;;;16.20;99.90;;;;;;5035318;28;20401;-70
2023/09/06 03:21:48;;;;;;;6.73;5.70;;;16.20;99.90;;;;;;5035491;28;20451;-70
2023/09/06 03:24:14;;;;;;;6.80;5.63;;;16.10;99.90;;;;;;5035535;28;20196;-70
2023/09/06 03:26:43;;;;;;;6.37;5.77;;;16.10;99.90;;;;;;5036156;28;20178;-70
2023/09/06 03:29:10;;;;;;;5.63;5.03;;;16.10;99.90;;;;;;5035000;28;20170;-70
2023/09/06 03:31:42;;;;;;;6.13;5.20;;;16.10;99.90;;;;;;5034660;28;20501;-69
2023/09/06 03:34:15;;;;;;;5.80;5.30;;;16.00;99.90;;;;;;5035333;28;20436;-70
2023/09/06 03:36:41;;;;;;;6.13;5.50;;;16.00;99.90;;;;;;5035290;28;20386;-69
2023/09/06 03:39:12;;;;;;;6.10;5.50;;;16.10;99.90;;;;;;5034581;28;20901;-70
2023/09/06 03:41:39;;;;;;;7.20;6.13;;;16.10;99.90;;;;;;5035141;28;20399;-70
2023/09/06 03:44:04;;;;;;;6.20;5.60;;;16.10;99.90;;;;;;5034315;28;20425;-70
2023/09/06 03:46:30;;;;;;;6.13;5.47;;;15.90;99.90;;;;;;5034853;28;20394;-70
2023/09/06 03:48:55;;;;;;;6.50;5.90;;;16.00;99.90;;;;;;5034601;28;20181;-70
2023/09/06 03:51:21;;;;;;;6.80;6.10;;;15.90;99.90;;;;;;5034691;28;20222;-70
2023/09/06 03:53:47;;;;;;;6.33;5.73;;;15.90;99.90;;;;;;5035096;28;20205;-70
2023/09/06 03:56:14;;;;;;;8.33;6.80;;;15.90;99.90;;;;;;5034284;28;20166;-70
2023/09/06 03:58:41;;;;;;;6.47;5.87;;;15.90;99.90;;;;;;5034758;28;20435;-70
2023/09/06 04:01:10;;;;;;;6.23;5.63;;;15.90;99.90;;;;;;5034470;28;20428;-70
2023/09/06 04:03:38;;;;;;;7.27;6.03;;;15.80;99.90;;;;;;5034463;28;20802;-70
2023/09/06 04:06:04;;;;;;;8.93;6.73;;;15.80;99.90;;;;;;5034833;28;20403;-70
2023/09/06 04:08:30;;;;;;;8.20;6.20;;;15.70;99.90;;;;;;5034454;28;20507;-70
2023/09/06 04:10:56;;;;;;;6.10;5.50;;;15.60;99.90;;;;;;5034321;28;20244;-70
2023/09/06 04:13:22;;;;;;;7.07;5.30;;;15.60;99.90;;;;;;5033930;28;20472;-70
2023/09/06 04:15:48;;;;;;;6.47;5.60;;;15.70;99.90;;;;;;5034365;28;20166;-70
2023/09/06 04:18:13;;;;;;;6.70;6.10;;;15.70;99.90;;;;;;5032812;28;20177;-70
2023/09/06 04:20:44;;;;;;;6.60;6.00;;;15.70;99.90;;;;;;5034261;28;20186;-70
2023/09/06 04:23:12;;;;;;;6.00;5.50;;;15.70;99.90;;;;;;5034598;28;20166;-69
2023/09/06 04:25:41;;;;;;;6.97;5.80;;;15.60;99.90;;;;;;5034609;28;20404;-69
2023/09/06 04:28:08;;;;;;;6.70;6.00;;;15.50;99.90;;;;;;5033987;28;20426;-70
2023/09/06 04:30:36;;;;;;;7.40;5.93;;;15.60;99.90;;;;;;5034127;28;20427;-70
2023/09/06 04:33:05;;;;;;;7.57;6.20;;;15.50;99.90;;;;;;5033767;28;20421;-70
2023/09/06 04:35:38;;;;;;;6.73;6.03;;;15.50;99.90;;;;;;5034341;28;20465;-70
2023/09/06 04:38:05;;;;;;;6.37;5.80;;;15.40;99.90;;;;;;5034187;28;20413;-69
2023/09/06 04:40:30;;;;;;;6.63;6.03;;;15.50;99.90;;;;;;5033572;28;20443;-69
2023/09/06 04:42:56;;;;;;;6.67;6.00;;;15.40;99.90;;;;;;5033844;28;20408;-69
2023/09/06 04:45:22;;;;;;;6.53;5.93;;;15.40;99.90;;;;;;5033979;28;20189;-70
2023/09/06 04:47:48;;;;;;;6.60;6.00;;;15.50;99.90;;;;;;5033293;28;20416;-69
2023/09/06 04:50:13;;;;;;;6.47;5.83;;;15.50;99.90;;;;;;5033157;28;20257;-69
2023/09/06 04:52:47;;;;;;;7.73;6.97;;;15.50;99.90;;;;;;5033853;28;20290;-69
2023/09/06 04:55:14;;;;;;;8.20;6.10;;;15.50;99.90;;;;;;5033849;28;20189;-69
2023/09/06 04:57:41;;;;;;;12.50;6.30;;;15.50;99.90;;;;;;5033562;28;20461;-69
2023/09/06 05:00:14;;;;;;;7.93;7.00;;;15.50;99.90;;;;;;5033623;28;20440;-69
2023/09/06 05:02:40;;;;;;;8.83;6.27;;;15.50;99.90;;;;;;5031835;28;20400;-69
2023/09/06 05:05:05;;;;;;;7.43;6.73;;;15.50;99.90;;;;;;5033284;28;20428;-70
2023/09/06 05:07:31;;;;;;;7.80;6.10;;;15.60;99.90;;;;;;5033130;28;20178;-69
2023/09/06 05:09:58;;;;;;;6.60;6.00;;;15.60;99.90;;;;;;5033149;28;20626;-69
2023/09/06 05:12:23;;;;;;;7.17;6.10;;;15.60;99.90;;;;;;5033007;28;20452;-69
2023/09/06 05:14:49;;;;;;;6.43;5.83;;;15.50;99.90;;;;;;5033246;28;20529;-69
2023/09/06 05:17:14;;;;;;;8.87;7.47;;;15.60;99.90;;;;;;5032599;28;20221;-69
2023/09/06 05:19:40;;;;;;;7.50;6.47;;;15.60;99.90;;;;;;5033372;28;20264;-70
2023/09/06 05:22:05;;;;;;;6.90;6.23;;;15.60;99.90;;;;;;5032856;28;20203;-70
2023/09/06 05:24:31;;;;;;;7.27;6.57;;;15.60;99.90;;;;;;5032994;28;20264;-70
2023/09/06 05:26:57;;;;;;;7.77;6.97;;;15.50;99.90;;;;;;5032900;28;20249;-70
2023/09/06 05:29:22;;;;;;;7.87;7.03;;;15.50;99.90;;;;;;5032888;28;20684;-70
2023/09/06 05:31:48;;;;;;;8.07;6.93;;;15.60;99.90;;;;;;5032083;28;20204;-69
2023/09/06 05:34:13;;;;;;;7.80;7.10;;;15.60;99.90;;;;;;5032027;28;20195;-69
2023/09/06 05:36:39;;;;;;;9.20;8.30;;;15.60;99.90;;;;;;5033026;28;20177;-70
2023/09/06 05:39:06;;;;;;;13.23;6.20;;;15.60;99.90;;;;;;5032062;28;20177;-69
2023/09/06 05:41:33;;;;;;;8.37;6.37;;;15.70;99.90;;;;;;5031757;28;20289;-70
2023/09/06 05:43:59;;;;;;;6.30;5.50;;;15.70;99.90;;;;;;5031896;28;20419;-69
2023/09/06 05:46:24;;;;;;;7.13;6.30;;;15.70;99.90;;;;;;5032574;28;20467;-69
2023/09/06 05:48:50;;;;;;;7.70;6.80;;;15.70;99.90;;;;;;5032099;28;20174;-70
2023/09/06 05:51:15;;;;;;;5.87;5.37;;;15.70;99.90;;;;;;5032156;28;20213;-70
2023/09/06 05:53:41;;;;;;;7.53;6.63;;;15.80;99.90;;;;;;5032491;28;20200;-70
2023/09/06 05:56:07;;;;;;;7.07;6.40;;;15.80;99.90;;;;;;5032500;28;20606;-69
2023/09/06 05:58:37;;;;;;;7.80;6.57;;;15.80;99.90;;;;;;5032603;28;20176;-69
2023/09/06 06:01:04;;;;;;;7.17;6.30;;;15.90;99.90;;;;;;5032413;28;20297;-69
2023/09/06 06:03:29;;;;;;;7.20;6.30;;;16.00;99.90;;;;;;5032168;28;20405;-69
2023/09/06 06:05:55;;;;;;;6.27;5.67;;;16.00;99.90;;;;;;5032312;28;20413;-68
2023/09/06 06:08:21;;;;;;;6.77;6.20;;;16.00;99.90;;;;;;5031874;28;20179;-68
2023/09/06 06:10:46;;;;;;;6.30;5.70;;;16.10;99.90;;;;;;5032111;28;20198;-70
2023/09/06 06:13:12;;;;;;;8.20;7.00;;;16.10;99.90;;;;;;5032188;28;20226;-69
2023/09/06 06:15:38;;;;;;;5.93;5.30;;;16.30;99.90;;;;;;5032347;28;20172;-67
2023/09/06 06:18:05;;;;;;;7.80;7.00;;;16.30;99.90;;;;;;5031941;28;20175;-68
2023/09/06 06:20:31;;;;;;;7.73;6.30;;;16.40;99.90;;;;;;5031648;28;20437;-69
2023/09/06 06:22:58;;;;;;;6.90;6.00;;;16.50;99.90;;;;;;5032018;28;20410;-68
2023/09/06 06:25:23;;;;;;;7.50;6.80;;;16.70;99.90;;;;;;5032045;28;20425;-68
2023/09/06 06:27:51;;;;;;;6.33;5.83;;;16.80;99.90;;;;;;5031337;28;20781;-69
2023/09/06 06:30:18;;;;;;;7.30;6.60;;;16.90;99.90;;;;;;5030231;28;20230;-69
2023/09/06 06:32:44;;;;;;;7.27;6.67;;;17.00;99.90;;;;;;5031881;28;20497;-69
2023/09/06 06:35:12;;;;;;;6.13;5.60;;;17.10;99.90;;;;;;5032126;28;20457;-69
2023/09/06 06:37:38;;;;;;;8.00;6.00;;;17.30;99.90;;;;;;5031983;28;20414;-70
2023/09/06 06:40:05;;;;;;;6.80;6.20;;;17.40;99.90;;;;;;5031440;28;20454;-68
2023/09/06 06:42:33;;;;;;;6.83;6.23;;;17.60;99.90;;;;;;5031473;28;20414;-69
2023/09/06 06:44:58;;;;;;;7.37;6.63;;;17.60;99.90;;;;;;5032049;28;20452;-68
2023/09/06 06:47:24;;;;;;;6.60;6.00;;;17.70;99.90;;;;;;5031572;28;20450;-68
2023/09/06 06:49:50;;;;;;;6.23;5.63;;;17.80;99.90;;;;;;5031676;28;20198;-69
2023/09/06 06:52:16;;;;;;;9.17;5.93;;;18.00;99.90;;;;;;5034753;28;20187;-69
2023/09/06 06:54:42;;;;;;;7.00;6.30;;;18.10;99.90;;;;;;5036176;28;20510;-67
2023/09/06 06:57:07;;;;;;;7.10;6.17;;;18.30;99.90;;;;;;5035444;28;20179;-68
2023/09/06 06:59:34;;;;;;;6.93;6.33;;;18.50;99.90;;;;;;5035462;28;20193;-68
2023/09/06 07:02:00;;;;;;;6.80;6.20;;;18.50;99.90;;;;;;5035567;28;20246;-68
2023/09/06 07:04:26;;;;;;;6.70;6.20;;;18.60;99.90;;;;;;5035474;28;20452;-69
2023/09/06 07:06:51;;;;;;;6.57;5.97;;;18.60;99.90;;;;;;5035431;28;20175;-69
2023/09/06 07:09:17;;;;;;;8.57;6.47;;;18.70;99.90;;;;;;5035987;28;20175;-68
2023/09/06 07:11:43;;;;;;;7.00;6.30;;;18.70;99.90;;;;;;5035731;28;20233;-69
2023/09/06 07:14:08;;;;;;;6.13;5.57;;;18.90;99.90;;;;;;5035349;28;20709;-71
2023/09/06 07:16:34;;;;;;;7.30;5.80;;;19.10;99.90;;;;;;5035413;28;20770;-73
2023/09/06 07:19:00;;;;;;;6.60;6.00;;;19.20;99.90;;;;;;5034309;28;20171;-70
2023/09/06 07:21:26;;;;;;;10.27;6.30;;;19.40;99.90;;;;;;5035422;28;20719;-70
2023/09/06 07:23:51;;;;;;;6.70;5.10;;;19.60;99.90;;;;;;5035626;28;20175;-71
2023/09/06 07:26:17;;;;;;;6.70;6.10;;;19.80;99.90;;;;;;5035270;28;20517;-73
2023/09/06 07:28:47;;;;;;;7.53;6.00;;;20.00;99.90;;;;;;5035386;28;20179;-70
2023/09/06 07:31:14;;;;;;;6.30;5.70;;;20.10;99.90;;;;;;5035671;28;20191;-71
2023/09/06 07:33:40;;;;;;;6.33;5.73;;;20.30;99.90;;;;;;5034790;28;20813;-70
2023/09/06 07:36:06;;;;;;;6.60;6.00;;;20.20;99.90;;;;;;5034053;28;20421;-70
2023/09/06 07:38:32;;;;;;;7.13;5.57;;;20.40;99.90;;;;;;5035350;28;20465;-71
2023/09/06 07:41:06;;;;;;;6.20;5.60;;;20.40;99.90;;;;;;5034487;28;20479;-70
2023/09/06 07:43:33;;;;;;;5.27;4.77;;;20.50;99.90;;;;;;5035223;28;20394;-71
2023/09/06 07:45:59;;;;;;;6.00;5.43;;;20.60;99.90;;;;;;5035087;28;20901;-70
2023/09/06 07:48:26;;;;;;;6.27;5.67;;;20.80;99.90;;;;;;5034649;28;20568;-70
2023/09/06 07:50:52;;;;;;;6.13;5.53;;;20.70;99.90;;;;;;5035273;28;20438;-69
2023/09/06 07:53:18;;;;;;;6.37;5.80;;;20.60;99.90;;;;;;5035198;28;20414;-69
2023/09/06 07:55:45;;;;;;;6.73;6.13;;;20.30;99.90;;;;;;5035144;28;20908;-69
2023/09/06 07:58:11;;;;;;;6.70;6.00;;;19.90;99.90;;;;;;5035304;28;20172;-69
2023/09/06 08:00:37;;;;;;;7.40;6.60;;;19.90;99.90;;;;;;5034823;28;20429;-69
2023/09/06 08:03:03;;;;;;;7.93;7.10;;;20.10;99.90;;;;;;5033718;28;20250;-68
2023/09/06 08:05:32;;;;;;;8.13;6.10;;;20.10;99.90;;;;;;5033460;28;20172;-70
2023/09/06 08:07:58;;;;;;;7.67;6.20;;;20.50;99.90;;;;;;5034778;28;20414;-67
2023/09/06 08:10:24;;;;;;;7.30;6.60;;;20.70;99.90;;;;;;5034799;28;20429;-68
2023/09/06 08:12:51;;;;;;;9.50;6.93;;;20.90;99.90;;;;;;5035503;28;20888;-68
2023/09/06 08:15:17;;;;;;;5.50;5.00;;;21.00;99.90;;;;;;5034698;28;20450;-69
2023/09/06 08:17:47;;;;;;;5.70;5.20;;;20.90;99.90;;;;;;5032021;28;20913;-69
2023/09/06 08:20:14;;;;;;;7.37;6.50;;;20.70;99.90;;;;;;5034412;28;20454;-69
2023/09/06 08:22:40;;;;;;;7.57;6.13;;;20.80;99.90;;;;;;5034614;28;20410;-70
2023/09/06 08:25:06;;;;;;;6.60;6.00;;;21.00;99.90;;;;;;5034690;28;20775;-69
2023/09/06 08:27:32;;;;;;;6.10;5.50;;;20.80;99.90;;;;;;5034248;28;20410;-69
2023/09/06 08:29:58;;;;;;;7.23;5.97;;;21.00;99.90;;;;;;5033765;28;20658;-74
2023/09/06 08:32:23;;;;;;;7.37;5.63;;;21.30;99.90;;;;;;5034513;28;20552;-72
2023/09/06 08:34:49;;;;;;;7.80;6.00;;;21.40;99.90;;;;;;5034213;28;20202;-73
2023/09/06 08:37:15;;;;;;;7.60;5.20;;;21.50;99.90;;;;;;5034195;28;20590;-71
2023/09/06 08:39:40;;;;;;;6.27;5.77;;;21.70;99.90;;;;;;5057658;23;20203;-72
2023/09/06 08:42:07;;;;;;;7.70;6.90;;;21.30;99.90;;;;;;5031615;28;20544;-73
2023/09/06 08:44:32;;;;;;;6.40;5.80;;;21.20;99.90;;;;;;5033008;28;20194;-70
2023/09/06 08:47:04;;;;;;;6.57;5.73;;;21.40;99.90;;;;;;5032348;28;20398;-70
2023/09/06 08:49:30;;;;;;;6.00;5.23;;;21.50;99.90;;;;;;5032196;28;20167;-71
2023/09/06 08:51:58;;;;;;;6.23;5.63;;;21.70;99.90;;;;;;5032665;28;20425;-69
2023/09/06 08:54:25;;;;;;;6.93;5.50;;;21.90;99.90;;;;;;5032516;28;20442;-70
2023/09/06 08:56:51;;;;;;;8.20;5.03;;;22.00;99.90;;;;;;5031903;28;20403;-69
2023/09/06 08:59:19;;;;;;;5.83;5.23;;;21.70;99.90;;;;;;5032157;28;20402;-70
2023/09/06 09:01:45;;;;;;;6.07;4.97;;;21.90;99.90;;;;;;5032239;28;20425;-70
2023/09/06 09:04:12;;;;;;;6.50;5.90;;;22.10;99.90;;;;;;5032077;28;20410;-71
2023/09/06 09:06:42;;;;;;;6.37;5.03;;;22.20;99.90;;;;;;5032650;28;20186;-70
2023/09/06 09:09:16;;;;;;;7.63;6.80;;;22.30;99.90;;;;;;5030757;28;20417;-71
2023/09/06 09:11:48;;;;;;;6.07;5.33;;;22.20;99.90;;;;;;5031911;28;20426;-70
2023/09/06 09:14:22;;;;;;;5.70;5.20;;;22.30;99.90;;;;;;5031451;28;20442;-71
2023/09/06 09:16:59;;;;;;;5.87;5.30;;;22.50;99.90;;;;;;5031801;28;20450;-69
2023/09/06 09:19:25;;;;;;;7.80;5.83;;;22.60;99.90;;;;;;5031494;28;20412;-71
2023/09/06 09:21:52;;;;;;;8.17;5.50;;;22.50;99.90;;;;;;5032381;28;20536;-69
2023/09/06 09:24:26;;;;;;;5.17;4.70;;;22.50;99.90;;;;;;5031631;28;20435;-69
2023/09/06 09:26:53;;;;;;;6.53;5.93;;;22.70;99.90;;;;;;5031504;28;20406;-69
2023/09/06 09:29:18;;;;;;;7.10;6.37;;;22.80;99.90;;;;;;5031520;28;20410;-70
2023/09/06 09:31:44;;;;;;;6.87;5.37;;;22.80;99.90;;;;;;5030824;28;20532;-69
2023/09/06 09:34:12;;;;;;;6.80;5.50;;;22.90;99.90;;;;;;5030885;28;20210;-70
2023/09/06 09:36:38;;;;;;;9.60;5.77;;;22.90;99.90;;;;;;5031440;28;20532;-69
2023/09/06 09:39:08;;;;;;;7.47;5.67;;;23.00;99.90;;;;;;5031644;28;20781;-69
2023/09/06 09:41:34;;;;;;;6.13;5.53;;;23.00;99.90;;;;;;5031275;28;20438;-69
2023/09/06 09:44:26;;;;;;;5.77;5.27;;;23.30;99.90;;;;;;5030961;28;20422;-69
2023/09/06 09:46:56;;;;;;;8.10;5.50;;;23.30;99.90;;;;;;5028232;28;20410;-69
2023/09/06 09:49:22;;;;;;;8.10;7.20;;;23.40;99.90;;;;;;5030562;28;20417;-69
2023/09/06 09:51:50;;;;;;;6.40;5.70;;;23.50;99.90;;;;;;5031049;28;20963;-71
2023/09/06 09:54:19;;;;;;;8.47;7.03;;;23.30;99.90;;;;;;5029614;28;20456;-70
2023/09/06 09:56:54;;;;;;;9.00;6.00;;;23.30;99.90;;;;;;5031108;28;20467;-74
2023/09/06 09:59:21;;;;;;;7.53;5.70;;;23.60;99.90;;;;;;5030737;28;20428;-74
2023/09/06 10:01:51;;;;;;;7.20;5.70;;;23.90;99.90;;;;;;5031034;28;20473;-70
2023/09/06 10:04:19;;;;;;;6.83;5.87;;;24.00;99.90;;;;;;5030958;28;20595;-70
2023/09/06 10:06:46;;;;;;;7.73;5.90;;;24.00;99.90;;;;;;5030825;28;20406;-70
2023/09/06 10:09:14;;;;;;;8.73;6.80;;;24.00;99.90;;;;;;5031045;28;20477;-70
2023/09/06 10:11:42;;;;;;;7.00;5.60;;;24.00;99.90;;;;;;5031016;28;20437;-70
2023/09/06 10:14:11;;;;;;;6.03;5.30;;;24.00;99.90;;;;;;5030833;28;20450;-69
2023/09/06 10:16:38;;;;;;;9.53;6.40;;;24.30;99.90;;;;;;5031095;28;20417;-68
2023/09/06 10:19:04;;;;;;;6.87;6.20;;;24.40;99.90;;;;;;5030960;28;20776;-69
2023/09/06 10:21:31;;;;;;;10.10;5.90;;;24.60;99.90;;;;;;5031076;28;20449;-70
2023/09/06 10:23:58;;;;;;;9.37;6.67;;;24.80;99.90;;;;;;5030976;28;20858;-70
2023/09/06 10:26:26;;;;;;;7.10;6.33;;;24.60;99.90;;;;;;5030251;28;20417;-69
2023/09/06 10:28:59;;;;;;;8.20;6.50;;;24.70;99.90;;;;;;5030700;28;20505;-70
2023/09/06 10:31:35;;;;;;;7.77;6.33;;;24.80;99.90;;;;;;5030954;28;20425;-70
2023/09/06 10:34:01;;;;;;;7.30;6.37;;;24.70;99.90;;;;;;5030410;28;20461;-70
2023/09/06 10:36:27;;;;;;;7.00;6.30;;;24.80;99.90;;;;;;5030826;28;20790;-69
2023/09/06 10:38:54;;;;;;;6.97;6.27;;;25.00;99.90;;;;;;5030978;28;20552;-70
2023/09/06 10:41:21;;;;;;;9.13;6.07;;;25.20;99.90;;;;;;5030395;28;20442;-69
2023/09/06 10:43:58;;;;;;;6.00;5.50;;;25.20;99.90;;;;;;5030446;28;20429;-70
2023/09/06 10:46:29;;;;;;;8.57;5.93;;;25.60;99.90;;;;;;5030636;28;20455;-70
2023/09/06 10:49:16;;;;;;;8.23;6.40;;;27.10;99.90;;;;;;5030465;28;20439;-70
2023/09/06 10:52:03;;;;;;;6.93;5.67;;;28.20;98.10;;;;;;5030440;28;20434;-70
2023/09/06 10:54:37;;;;;;;6.93;6.23;;;29.20;96.60;;;;;;5030422;28;20971;-70
2023/09/06 10:57:05;;;;;;;6.67;5.67;;;29.90;94.40;;;;;;5030629;28;20407;-68
2023/09/06 10:59:33;;;;;;;5.97;5.30;;;30.60;93.10;;;;;;5030243;28;20481;-70
2023/09/06 11:02:18;;;;;;;5.80;5.30;;;30.20;93.00;;;;;;5030605;28;20416;-70
2023/09/06 11:04:44;;;;;;;6.10;5.33;;;30.90;91.70;;;;;;5019688;28;20418;-70
2023/09/06 11:07:10;;;;;;;5.80;5.30;;;31.80;90.80;;;;;;5030340;28;20433;-70
2023/09/06 11:09:43;;;;;;;5.57;5.00;;;33.20;85.20;;;;;;5030308;28;20627;-70
2023/09/06 11:12:11;;;;;;;6.13;5.60;;;31.50;87.90;;;;;;5030345;28;20164;-70
2023/09/06 11:14:37;;;;;;;6.27;5.70;;;33.20;85.40;;;;;;5030190;28;20776;-69
2023/09/06 11:17:02;;;;;;;6.43;5.60;;;33.00;82.40;;;;;;5030312;28;20418;-69
2023/09/06 11:19:29;;;;;;;7.80;5.80;;;32.90;80.90;;;;;;5029926;28;20172;-70
2023/09/06 11:22:09;;;;;;;5.60;5.03;;;33.50;79.20;;;;;;5029071;28;20166;-70
2023/09/06 11:24:36;;;;;;;4.90;4.50;;;34.00;77.60;;;;;;5030583;28;20464;-70
2023/09/06 11:27:29;;;;;;;6.80;6.10;;;34.70;76.60;;;;;;5030052;28;20409;-70
2023/09/06 11:30:15;;;;;;;5.07;4.67;;;34.50;73.80;;;;;;5029771;28;20998;-70
2023/09/06 11:32:44;;;;;;;6.73;5.20;;;35.40;71.90;;;;;;5029578;28;20412;-70
2023/09/06 11:35:10;;;;;;;5.30;4.80;;;36.00;69.00;;;;;;5030254;28;20460;-68
2023/09/06 11:37:38;;;;;;;5.90;5.13;;;33.70;73.40;;;;;;5030219;28;20403;-71
2023/09/06 11:40:19;;;;;;;5.80;4.97;;;34.50;71.00;;;;;;5033433;28;20592;-71
2023/09/06 11:42:49;;;;;;;4.33;3.93;;;34.20;70.90;;;;;;5033069;28;20414;-70
2023/09/06 11:45:19;;;;;;;5.40;4.83;;;36.30;71.50;;;;;;5033827;28;20448;-70
2023/09/06 11:47:45;;;;;;;4.87;4.47;;;37.10;62.60;;;;;;5033480;28;20745;-69
2023/09/06 11:50:18;;;;;;;5.40;4.20;;;36.80;62.80;;;;;;5033376;28;20428;-70
2023/09/06 11:52:48;;;;;;;5.53;5.00;;;37.30;60.40;;;;;;5033870;28;20576;-69
2023/09/06 11:55:18;;;;;;;4.23;3.83;;;36.50;61.20;;;;;;5033705;28;20843;-69
2023/09/06 11:57:57;;;;;;;4.77;4.33;;;35.90;61.20;;;;;;5033041;28;20411;-70
2023/09/06 12:00:35;;;;;;;5.00;4.50;;;35.90;61.20;;;;;;5033625;28;20508;-70
2023/09/06 12:03:07;;;;;;;4.60;4.30;;;34.60;63.20;;;;;;5033578;28;20536;-70
2023/09/06 12:05:35;;;;;;;4.80;4.03;;;34.50;63.20;;;;;;5033330;28;20394;-69
2023/09/06 12:08:01;;;;;;;5.10;4.60;;;35.30;62.70;;;;;;5033267;28;20441;-70
2023/09/06 12:10:28;;;;;;;5.20;4.70;;;35.70;59.10;;;;;;5033175;28;20429;-69
2023/09/06 12:12:56;;;;;;;4.90;4.33;;;34.50;61.90;;;;;;5032788;28;20885;-70
2023/09/06 12:15:25;;;;;;;5.13;4.67;;;33.90;63.10;;;;;;5033847;28;20438;-70
2023/09/06 12:17:51;;;;;;;4.83;4.30;;;33.80;62.90;;;;;;5032863;28;20399;-70
2023/09/06 12:20:23;;;;;;;5.10;4.40;;;34.00;65.90;;;;;;5032580;28;20428;-70
2023/09/06 12:22:50;;;;;;;5.20;4.40;;;34.80;61.30;;;;;;5032797;28;20795;-70
2023/09/06 12:25:16;;;;;;;4.70;4.30;;;35.50;61.40;;;;;;5032543;28;20406;-69
2023/09/06 12:27:46;;;;;;;4.27;3.90;;;35.90;60.50;;;;;;5032479;28;20414;-70
2023/09/06 12:30:14;;;;;;;5.57;4.20;;;36.30;58.10;;;;;;5032648;28;20444;-70
2023/09/06 12:32:41;;;;;;;5.13;4.73;;;36.70;56.10;;;;;;5043047;28;20421;-71
2023/09/06 12:35:07;;;;;;;4.77;4.30;;;36.20;57.60;;;;;;5038431;28;20465;-69
2023/09/06 12:37:37;;;;;;;3.97;3.67;;;36.00;57.10;;;;;;5032218;28;20476;-69
2023/09/06 12:40:10;;;;;;;8.10;5.23;;;34.10;59.00;;;;;;5032545;28;20465;-68
2023/09/06 12:42:42;;;;;;;5.03;4.13;;;34.70;59.10;;;;;;5032256;28;20391;-70
2023/09/06 12:45:08;;;;;;;4.60;4.20;;;34.90;57.80;;;;;;5032339;28;20397;-69
2023/09/06 12:47:36;;;;;;;5.13;4.60;;;33.70;60.10;;;;;;5031986;28;20442;-70
2023/09/06 12:50:05;;;;;;;7.00;4.87;;;34.20;60.60;;;;;;5031494;28;20434;-71